createdAt,value
2022-09-26T00:01:15.016Z,11.25
2022-09-26T00:03:47.083Z,11.27
2022-09-26T00:06:14.154Z,11.31
2022-09-26T00:08:40.873Z,11.29
2022-09-26T00:11:11.126Z,11.13
2022-09-26T00:13:40.264Z,11.23
2022-09-26T00:16:07.890Z,11.29
2022-09-26T00:18:35.099Z,11.39
2022-09-26T00:21:13.091Z,11.53
2022-09-26T00:23:41.845Z,11.61
2022-09-26T00:26:09.522Z,11.60
2022-09-26T00:28:36.541Z,11.72
2022-09-26T00:31:05.381Z,11.80
2022-09-26T00:33:32.616Z,11.90
2022-09-26T00:35:59.256Z,11.89
2022-09-26T00:38:26.255Z,11.95
2022-09-26T00:40:52.993Z,12.01
2022-09-26T00:43:33.097Z,12.13
2022-09-26T00:46:14.529Z,12.15
2022-09-26T00:48:43.607Z,12.20
2022-09-26T00:51:11.457Z,12.20
2022-09-26T00:53:50.069Z,12.20
2022-09-26T00:56:30.677Z,12.25
2022-09-26T00:59:08.550Z,12.33
2022-09-26T01:01:35.466Z,12.23
2022-09-26T01:04:04.696Z,12.15
2022-09-26T01:06:32.259Z,12.07
2022-09-26T01:09:01.764Z,12.06
2022-09-26T01:11:31.632Z,12.12
2022-09-26T01:13:59.182Z,12.09
2022-09-26T01:16:25.881Z,12.05
2022-09-26T01:18:52.602Z,12.08
2022-09-26T01:21:56.893Z,12.10
2022-09-26T01:24:38.262Z,12.04
2022-09-26T01:27:38.975Z,11.98
2022-09-26T01:30:29.409Z,11.96
2022-09-26T01:33:26.932Z,11.98
2022-09-26T01:36:08.715Z,12.00
2022-09-26T01:38:48.514Z,11.87
2022-09-26T01:41:24.573Z,11.71
2022-09-26T01:43:56.949Z,11.56
2022-09-26T01:46:41.797Z,11.62
2022-09-26T01:49:32.220Z,11.58
2022-09-26T01:52:19.997Z,11.44
2022-09-26T01:54:55.595Z,11.50
2022-09-26T01:57:30.148Z,11.51
2022-09-26T02:00:02.365Z,11.56
2022-09-26T02:02:31.553Z,11.51
2022-09-26T02:05:07.819Z,11.61
2022-09-26T02:07:40.305Z,11.70
2022-09-26T02:10:20.539Z,11.84
2022-09-26T02:12:55.053Z,11.80
2022-09-26T02:15:25.691Z,11.81
2022-09-26T02:17:58.104Z,11.79
2022-09-26T02:20:30.111Z,11.80
2022-09-26T02:22:58.873Z,11.61
2022-09-26T02:25:26.467Z,11.55
2022-09-26T02:27:53.103Z,11.51
2022-09-26T02:30:19.748Z,11.55
2022-09-26T02:32:46.785Z,11.32
2022-09-26T02:35:32.635Z,11.29
2022-09-26T02:37:59.283Z,11.27
2022-09-26T02:40:36.757Z,11.28
2022-09-26T02:43:26.489Z,11.20
2022-09-26T02:46:11.238Z,11.16
2022-09-26T02:48:40.816Z,11.09
2022-09-26T02:51:20.651Z,11.07
2022-09-26T02:53:57.394Z,10.87
2022-09-26T02:56:41.876Z,10.76
2022-09-26T02:59:29.751Z,10.80
2022-09-26T03:02:15.807Z,10.90
2022-09-26T03:04:49.247Z,10.88
2022-09-26T03:07:24.303Z,10.95
2022-09-26T03:09:53.060Z,10.92
2022-09-26T03:12:20.974Z,10.88
2022-09-26T03:14:49.982Z,10.91
2022-09-26T03:17:18.973Z,10.93
2022-09-26T03:19:55.155Z,10.97
2022-09-26T03:22:21.805Z,10.86
2022-09-26T03:24:48.352Z,10.97
2022-09-26T03:27:17.095Z,10.91
2022-09-26T03:29:44.043Z,10.85
2022-09-26T03:32:10.646Z,10.80
2022-09-26T03:34:39.958Z,10.84
2022-09-26T03:37:07.208Z,10.77
2022-09-26T03:39:33.813Z,10.60
2022-09-26T03:42:02.086Z,10.67
2022-09-26T03:44:29.620Z,10.63
2022-09-26T03:46:56.191Z,10.73
2022-09-26T03:49:22.772Z,10.71
2022-09-26T03:51:49.312Z,10.68
2022-09-26T03:54:16.597Z,10.72
2022-09-26T03:56:43.200Z,10.73
2022-09-26T03:59:09.838Z,10.70
2022-09-26T04:01:36.448Z,10.70
2022-09-26T04:04:03.189Z,10.90
2022-09-26T04:06:29.824Z,10.93
2022-09-26T04:08:56.501Z,11.08
2022-09-26T04:11:24.653Z,11.18
2022-09-26T04:13:53.987Z,11.18
2022-09-26T04:16:23.843Z,11.12
2022-09-26T04:18:56.733Z,11.02
2022-09-26T04:21:24.315Z,10.86
2022-09-26T04:23:53.071Z,10.91
2022-09-26T04:26:23.689Z,10.92
2022-09-26T04:28:52.289Z,10.86
2022-09-26T04:31:21.557Z,10.71
2022-09-26T04:33:48.398Z,10.67
2022-09-26T04:36:16.402Z,10.57
2022-09-26T04:38:43.036Z,10.68
2022-09-26T04:41:18.527Z,10.71
2022-09-26T04:43:46.077Z,10.71
2022-09-26T04:46:21.848Z,10.64
2022-09-26T04:48:51.664Z,10.53
2022-09-26T04:51:20.084Z,10.69
2022-09-26T04:53:47.479Z,10.63
2022-09-26T04:56:15.529Z,10.62
2022-09-26T04:58:43.483Z,10.68
2022-09-26T05:01:15.537Z,10.69
2022-09-26T05:03:42.495Z,10.60
2022-09-26T05:06:10.238Z,10.61
2022-09-26T05:08:41.183Z,10.83
2022-09-26T05:11:09.285Z,11.00
2022-09-26T05:13:37.933Z,11.21
2022-09-26T05:16:06.312Z,11.31
2022-09-26T05:18:33.768Z,11.65
2022-09-26T05:21:01.433Z,12.04
2022-09-26T05:23:46.451Z,12.37
2022-09-26T05:26:24.361Z,12.80
2022-09-26T05:28:56.681Z,13.69
2022-09-26T05:31:29.219Z,14.70
2022-09-26T05:33:59.418Z,15.77
2022-09-26T05:36:27.348Z,16.39
2022-09-26T05:38:54.490Z,16.63
2022-09-26T05:41:21.650Z,16.72
2022-09-26T05:43:48.383Z,16.44
2022-09-26T05:46:16.448Z,16.43
2022-09-26T05:48:43.196Z,15.96
2022-09-26T05:51:15.591Z,15.74
2022-09-26T05:53:44.441Z,15.19
2022-09-26T05:56:17.664Z,15.19
2022-09-26T05:58:45.483Z,15.25
2022-09-26T06:01:16.802Z,15.24
2022-09-26T06:03:44.823Z,15.20
2022-09-26T06:06:20.303Z,15.48
2022-09-26T06:08:48.143Z,15.64
2022-09-26T06:11:17.135Z,16.24
2022-09-26T06:13:45.911Z,16.67
2022-09-26T06:16:18.242Z,16.96
2022-09-26T06:18:46.906Z,17.15
2022-09-26T06:21:15.560Z,17.27
2022-09-26T06:23:42.599Z,17.40
2022-09-26T06:26:20.158Z,17.49
2022-09-26T06:28:47.267Z,17.73
2022-09-26T06:31:17.801Z,17.97
2022-09-26T06:33:45.039Z,18.09
2022-09-26T06:36:12.071Z,18.17
2022-09-26T06:38:38.981Z,17.95
2022-09-26T06:41:07.590Z,17.76
2022-09-26T06:43:34.415Z,17.90
2022-09-26T06:46:01.284Z,17.64
2022-09-26T06:48:27.972Z,18.08
2022-09-26T06:50:57.186Z,17.49
2022-09-26T06:53:23.937Z,17.67
2022-09-26T06:55:50.573Z,17.60
2022-09-26T06:58:17.509Z,17.81
2022-09-26T07:00:44.497Z,17.92
2022-09-26T07:03:13.511Z,18.39
2022-09-26T07:05:40.078Z,18.74
2022-09-26T07:08:07.078Z,19.20
2022-09-26T07:10:37.591Z,19.47
2022-09-26T07:13:09.521Z,19.40
2022-09-26T07:15:37.148Z,19.24
2022-09-26T07:18:06.482Z,19.11
2022-09-26T07:20:36.483Z,19.25
2022-09-26T07:23:04.580Z,19.92
2022-09-26T07:25:32.266Z,20.17
2022-09-26T07:27:59.598Z,19.35
2022-09-26T07:30:26.735Z,19.25
2022-09-26T07:32:56.975Z,18.89
2022-09-26T07:35:24.963Z,18.73
2022-09-26T07:37:52.908Z,18.71
2022-09-26T07:40:21.769Z,18.57
2022-09-26T07:43:09.252Z,18.67
2022-09-26T07:45:54.181Z,18.44
2022-09-26T07:48:39.323Z,18.55
2022-09-26T07:51:09.310Z,18.51
2022-09-26T07:53:36.835Z,18.56
2022-09-26T07:56:06.281Z,18.57
2022-09-26T07:58:33.436Z,18.78
2022-09-26T08:01:00.078Z,18.69
2022-09-26T08:03:28.588Z,18.76
2022-09-26T08:06:02.144Z,18.67
2022-09-26T08:08:29.946Z,18.71
2022-09-26T08:11:02.769Z,19.00
2022-09-26T08:13:31.970Z,18.89
2022-09-26T08:16:04.483Z,19.17
2022-09-26T08:18:31.288Z,19.22
2022-09-26T08:20:58.325Z,19.32
2022-09-26T08:23:29.598Z,19.33
2022-09-26T08:25:56.208Z,19.49
2022-09-26T08:28:24.034Z,19.46
2022-09-26T08:30:50.877Z,19.73
2022-09-26T08:33:19.013Z,19.75
2022-09-26T08:35:45.574Z,19.98
2022-09-26T08:38:14.431Z,20.33
2022-09-26T08:41:03.096Z,20.77
2022-09-26T08:43:44.866Z,20.95
2022-09-26T08:46:32.158Z,21.27
2022-09-26T08:49:36.732Z,21.52
2022-09-26T08:52:15.157Z,21.88
2022-09-26T08:54:45.068Z,22.15
2022-09-26T08:57:37.847Z,22.41
2022-09-26T09:00:19.169Z,22.73
2022-09-26T09:03:36.825Z,22.81
2022-09-26T09:06:11.615Z,22.97
2022-09-26T09:08:46.410Z,23.36
2022-09-26T09:11:49.146Z,23.18
2022-09-26T09:14:23.709Z,23.37
2022-09-26T09:17:13.903Z,23.84
2022-09-26T09:19:48.768Z,24.02
2022-09-26T09:22:47.111Z,24.38
2022-09-26T09:25:52.875Z,24.36
2022-09-26T09:28:34.644Z,24.10
2022-09-26T09:31:05.973Z,24.13
2022-09-26T09:33:47.478Z,24.06
2022-09-26T09:36:20.112Z,24.50
2022-09-26T09:38:49.839Z,24.44
2022-09-26T09:41:21.450Z,24.20
2022-09-26T09:44:02.294Z,24.25
2022-09-26T09:46:34.906Z,25.05
2022-09-26T09:49:10.839Z,25.42
2022-09-26T09:51:40.351Z,25.27
2022-09-26T09:54:22.322Z,25.09
2022-09-26T09:57:11.611Z,24.87
2022-09-26T10:00:07.608Z,24.47
2022-09-26T10:03:02.377Z,24.44
2022-09-26T10:05:37.234Z,24.16
2022-09-26T10:08:11.739Z,23.89
2022-09-26T10:10:42.310Z,23.68
2022-09-26T10:13:11.720Z,24.48
2022-09-26T10:16:02.343Z,24.65
2022-09-26T10:18:29.210Z,24.92
2022-09-26T10:20:59.730Z,24.33
2022-09-26T10:23:32.894Z,24.27
2022-09-26T10:26:05.679Z,23.93
2022-09-26T10:28:47.094Z,24.70
2022-09-26T10:31:39.944Z,24.92
2022-09-26T10:34:24.813Z,25.34
2022-09-26T10:36:53.119Z,25.20
2022-09-26T10:39:40.819Z,25.19
2022-09-26T10:42:35.300Z,24.92
2022-09-26T10:45:15.997Z,25.17
2022-09-26T10:47:46.385Z,24.96
2022-09-26T10:50:13.514Z,24.96
2022-09-26T10:52:51.964Z,24.74
2022-09-26T10:55:32.796Z,24.17
2022-09-26T10:58:11.365Z,24.59
2022-09-26T11:00:43.773Z,25.13
2022-09-26T11:03:16.469Z,25.41
2022-09-26T11:06:02.249Z,25.43
2022-09-26T11:08:38.287Z,25.60
2022-09-26T11:11:12.251Z,26.16
2022-09-26T11:13:48.219Z,25.92
2022-09-26T11:16:20.214Z,26.00
2022-09-26T11:19:19.861Z,26.27
2022-09-26T11:22:15.174Z,26.03
2022-09-26T11:25:02.212Z,26.23
2022-09-26T11:27:31.285Z,26.42
2022-09-26T11:30:10.685Z,26.03
2022-09-26T11:32:43.146Z,26.37
2022-09-26T11:35:33.492Z,26.60
2022-09-26T11:38:16.185Z,26.88
2022-09-26T11:41:14.006Z,26.22
2022-09-26T11:43:40.612Z,26.34
2022-09-26T11:46:58.756Z,26.34
2022-09-26T11:49:40.588Z,25.84
2022-09-26T11:52:23.482Z,25.21
2022-09-26T11:54:55.609Z,25.18
2022-09-26T11:57:40.939Z,24.99
2022-09-26T12:00:27.550Z,25.02
2022-09-26T12:03:11.442Z,25.50
2022-09-26T12:05:54.644Z,25.63
2022-09-26T12:08:36.103Z,25.82
2022-09-26T12:11:19.989Z,26.32
2022-09-26T12:14:24.054Z,26.36
2022-09-26T12:17:09.695Z,25.99
2022-09-26T12:19:39.118Z,25.68
2022-09-26T12:22:28.510Z,25.23
2022-09-26T12:25:11.020Z,25.28
2022-09-26T12:28:06.735Z,25.35
2022-09-26T12:30:45.944Z,25.01
2022-09-26T12:34:01.159Z,25.14
2022-09-26T12:36:48.073Z,24.94
2022-09-26T12:39:57.664Z,25.00
2022-09-26T12:42:47.967Z,24.88
2022-09-26T12:45:48.408Z,24.93
2022-09-26T12:48:51.441Z,25.09
2022-09-26T12:51:42.037Z,24.53
2022-09-26T12:54:17.544Z,24.98
2022-09-26T12:57:11.977Z,25.03
2022-09-26T12:59:52.775Z,24.85
2022-09-26T13:02:44.447Z,24.81
2022-09-26T13:05:30.757Z,24.59
2022-09-26T13:08:12.727Z,24.35
2022-09-26T13:10:57.732Z,24.20
2022-09-26T13:13:52.182Z,23.93
2022-09-26T13:16:43.761Z,23.95
2022-09-26T13:19:29.252Z,24.25
2022-09-26T13:22:35.096Z,24.24
2022-09-26T13:25:10.935Z,24.22
2022-09-26T13:28:05.218Z,24.04
2022-09-26T13:30:36.615Z,24.21
2022-09-26T13:33:20.819Z,24.16
2022-09-26T13:35:54.338Z,24.15
2022-09-26T13:38:34.095Z,24.09
2022-09-26T13:41:22.838Z,23.89
2022-09-26T13:44:06.147Z,23.83
2022-09-26T13:47:00.553Z,23.82
2022-09-26T13:49:58.002Z,23.82
2022-09-26T13:52:48.158Z,23.71
2022-09-26T13:55:20.182Z,23.58
2022-09-26T13:58:07.382Z,23.70
2022-09-26T14:00:40.812Z,23.51
2022-09-26T14:03:10.251Z,23.57
2022-09-26T14:05:50.034Z,23.48
2022-09-26T14:08:48.721Z,23.51
2022-09-26T14:11:30.841Z,23.47
2022-09-26T14:14:21.348Z,23.44
2022-09-26T14:16:56.853Z,23.27
2022-09-26T14:19:38.337Z,23.13
2022-09-26T14:22:18.361Z,23.10
2022-09-26T14:24:47.267Z,23.13
2022-09-26T14:27:30.501Z,23.07
2022-09-26T14:30:29.590Z,23.18
2022-09-26T14:33:05.279Z,23.09
2022-09-26T14:35:41.119Z,23.06
2022-09-26T14:38:22.905Z,23.04
2022-09-26T14:41:00.289Z,22.97
2022-09-26T14:43:30.318Z,23.02
2022-09-26T14:46:08.516Z,22.71
2022-09-26T14:48:38.134Z,22.94
2022-09-26T14:51:04.898Z,22.92
2022-09-26T14:53:43.379Z,22.92
2022-09-26T14:56:14.436Z,22.88
2022-09-26T14:58:51.152Z,22.93
2022-09-26T15:01:39.030Z,22.85
2022-09-26T15:04:08.835Z,23.03
2022-09-26T15:06:50.113Z,22.92
2022-09-26T15:09:27.369Z,22.91
2022-09-26T15:12:10.799Z,22.78
2022-09-26T15:14:46.689Z,22.74
2022-09-26T15:17:20.459Z,22.65
2022-09-26T15:19:54.678Z,22.72
2022-09-26T15:22:24.961Z,22.62
2022-09-26T15:25:15.509Z,22.43
2022-09-26T15:27:49.186Z,22.49
2022-09-26T15:30:27.110Z,22.53
2022-09-26T15:32:57.788Z,22.55
2022-09-26T15:35:26.818Z,22.54
2022-09-26T15:38:01.999Z,22.48
2022-09-26T15:40:30.956Z,22.35
2022-09-26T15:43:09.734Z,22.46
2022-09-26T15:45:46.229Z,22.34
2022-09-26T15:48:24.903Z,22.31
2022-09-26T15:50:58.790Z,22.17
2022-09-26T15:53:28.354Z,22.21
2022-09-26T15:56:02.031Z,22.24
2022-09-26T15:58:53.346Z,22.16
2022-09-26T16:01:22.562Z,22.18
2022-09-26T16:04:05.253Z,22.15
2022-09-26T16:06:35.336Z,22.01
2022-09-26T16:09:10.796Z,22.04
2022-09-26T16:12:03.203Z,21.85
2022-09-26T16:14:37.911Z,21.99
2022-09-26T16:17:23.333Z,22.01
2022-09-26T16:20:05.613Z,21.83
2022-09-26T16:22:37.084Z,21.90
2022-09-26T16:25:15.608Z,21.91
2022-09-26T16:27:42.853Z,21.84
2022-09-26T16:30:27.779Z,21.76
2022-09-26T16:33:03.209Z,21.78
2022-09-26T16:35:33.472Z,21.66
2022-09-26T16:38:02.951Z,21.71
2022-09-26T16:40:32.761Z,21.63
2022-09-26T16:43:12.659Z,21.66
2022-09-26T16:45:50.566Z,21.58
2022-09-26T16:48:38.748Z,21.55
2022-09-26T16:51:15.815Z,21.42
2022-09-26T16:53:47.773Z,21.52
2022-09-26T16:56:17.513Z,21.47
2022-09-26T16:59:02.513Z,21.54
2022-09-26T17:01:48.403Z,21.50
2022-09-26T17:04:18.019Z,21.33
2022-09-26T17:06:46.322Z,21.26
2022-09-26T17:09:21.209Z,21.29
2022-09-26T17:11:50.937Z,21.20
2022-09-26T17:14:24.212Z,21.23
2022-09-26T17:16:55.672Z,21.14
2022-09-26T17:19:24.442Z,20.98
2022-09-26T17:21:52.029Z,20.91
2022-09-26T17:24:23.075Z,20.83
2022-09-26T17:27:22.696Z,20.90
2022-09-26T17:29:51.790Z,20.73
2022-09-26T17:32:32.122Z,20.70
2022-09-26T17:35:01.988Z,20.68
2022-09-26T17:37:29.075Z,20.84
2022-09-26T17:39:56.020Z,20.83
2022-09-26T17:42:23.836Z,20.75
2022-09-26T17:44:51.109Z,20.68
2022-09-26T17:47:19.089Z,20.90
2022-09-26T17:49:52.310Z,20.78
2022-09-26T17:52:31.553Z,20.14
2022-09-26T17:55:01.585Z,20.15
2022-09-26T17:57:34.558Z,19.93
2022-09-26T18:00:06.975Z,19.80
2022-09-26T18:02:42.668Z,19.52
2022-09-26T18:05:23.261Z,19.46
2022-09-26T18:07:53.170Z,19.44
2022-09-26T18:10:23.980Z,19.38
2022-09-26T18:12:58.845Z,19.30
2022-09-26T18:15:27.652Z,19.20
2022-09-26T18:17:54.711Z,19.42
2022-09-26T18:20:27.366Z,19.40
2022-09-26T18:22:54.395Z,19.28
2022-09-26T18:25:24.407Z,19.36
2022-09-26T18:27:54.919Z,19.28
2022-09-26T18:30:22.532Z,19.24
2022-09-26T18:32:54.061Z,19.14
2022-09-26T18:35:25.366Z,19.11
2022-09-26T18:37:55.563Z,19.02
2022-09-26T18:40:25.098Z,18.41
2022-09-26T18:42:55.062Z,18.94
2022-09-26T18:45:39.350Z,18.82
2022-09-26T18:48:08.241Z,18.68
2022-09-26T18:50:39.819Z,18.64
2022-09-26T18:53:18.815Z,18.51
2022-09-26T18:56:03.974Z,18.36
2022-09-26T18:58:32.557Z,18.26
2022-09-26T19:01:01.307Z,18.22
2022-09-26T19:03:31.014Z,18.06
2022-09-26T19:06:02.183Z,17.83
2022-09-26T19:08:40.728Z,17.48
2022-09-26T19:11:13.151Z,17.30
2022-09-26T19:13:45.192Z,17.07
2022-09-26T19:16:12.436Z,16.96
2022-09-26T19:18:40.877Z,16.64
2022-09-26T19:21:33.864Z,16.53
2022-09-26T19:24:06.715Z,16.38
2022-09-26T19:26:42.796Z,16.40
2022-09-26T19:29:16.942Z,16.21
2022-09-26T19:31:43.985Z,16.13
2022-09-26T19:34:14.982Z,15.86
2022-09-26T19:36:41.876Z,15.97
2022-09-26T19:39:15.847Z,15.99
2022-09-26T19:41:42.701Z,15.79
2022-09-26T19:44:09.651Z,15.93
2022-09-26T19:46:38.101Z,15.78
2022-09-26T19:49:06.014Z,15.85
2022-09-26T19:51:39.699Z,15.69
2022-09-26T19:54:06.854Z,15.71
2022-09-26T19:56:33.684Z,15.77
2022-09-26T19:59:00.366Z,15.76
2022-09-26T20:01:27.459Z,15.68
2022-09-26T20:03:54.322Z,15.64
2022-09-26T20:06:23.592Z,15.69
2022-09-26T20:08:53.226Z,15.59
2022-09-26T20:11:22.396Z,15.48
2022-09-26T20:14:07.668Z,15.37
2022-09-26T20:16:38.635Z,15.25
2022-09-26T20:19:07.069Z,15.24
2022-09-26T20:21:34.509Z,15.27
2022-09-26T20:24:01.480Z,15.23
2022-09-26T20:26:30.654Z,15.29
2022-09-26T20:28:57.509Z,15.15
2022-09-26T20:31:29.225Z,15.07
2022-09-26T20:34:00.127Z,14.95
2022-09-26T20:36:32.897Z,15.01
2022-09-26T20:39:04.001Z,14.90
2022-09-26T20:41:35.859Z,14.89
2022-09-26T20:44:07.057Z,14.90
2022-09-26T20:46:40.823Z,14.93
2022-09-26T20:49:14.891Z,15.03
2022-09-26T20:51:43.131Z,14.93
2022-09-26T20:54:26.999Z,14.96
2022-09-26T20:56:54.864Z,15.01
2022-09-26T20:59:23.675Z,14.80
2022-09-26T21:01:54.522Z,14.86
2022-09-26T21:04:29.959Z,14.75
2022-09-26T21:06:56.715Z,14.75
2022-09-26T21:09:23.413Z,14.77
2022-09-26T21:11:50.111Z,14.82
2022-09-26T21:14:18.174Z,14.73
2022-09-26T21:16:48.435Z,14.76
2022-09-26T21:19:20.926Z,14.78
2022-09-26T21:21:47.609Z,14.61
2022-09-26T21:24:24.837Z,14.66
2022-09-26T21:26:51.831Z,14.62
2022-09-26T21:29:18.718Z,14.53
2022-09-26T21:31:49.167Z,14.44
2022-09-26T21:34:22.356Z,14.35
2022-09-26T21:36:51.336Z,14.42
2022-09-26T21:39:19.150Z,14.53
2022-09-26T21:41:49.754Z,14.56
2022-09-26T21:44:41.073Z,14.57
2022-09-26T21:47:07.685Z,14.52
2022-09-26T21:49:34.618Z,14.44
2022-09-26T21:52:28.529Z,14.46
2022-09-26T21:54:58.908Z,14.40
2022-09-26T21:57:33.957Z,14.36
2022-09-26T22:00:01.463Z,14.37
2022-09-26T22:02:28.157Z,14.28
2022-09-26T22:04:54.878Z,14.41
2022-09-26T22:07:21.516Z,14.40
2022-09-26T22:09:48.174Z,14.36
2022-09-26T22:12:14.802Z,14.30
2022-09-26T22:14:41.846Z,14.38
2022-09-26T22:17:08.745Z,14.39
2022-09-26T22:19:36.070Z,14.39
2022-09-26T22:22:03.322Z,14.39
2022-09-26T22:24:30.363Z,14.56
2022-09-26T22:26:56.954Z,14.53
2022-09-26T22:29:23.564Z,14.44
2022-09-26T22:31:50.395Z,14.52
2022-09-26T22:34:17.146Z,14.62
2022-09-26T22:36:43.752Z,14.58
2022-09-26T22:39:10.568Z,14.51
2022-09-26T22:41:37.298Z,14.39
2022-09-26T22:44:04.410Z,14.43
2022-09-26T22:46:35.723Z,14.42
2022-09-26T22:49:02.445Z,14.26
2022-09-26T22:51:29.040Z,14.47
2022-09-26T22:53:55.822Z,14.32
2022-09-26T22:56:22.665Z,14.41
2022-09-26T22:58:51.926Z,14.45
2022-09-26T23:01:23.973Z,14.44
2022-09-26T23:03:52.893Z,14.29
2022-09-26T23:06:21.492Z,14.07
2022-09-26T23:08:48.238Z,14.05
2022-09-26T23:11:18.291Z,14.24
2022-09-26T23:13:46.115Z,14.31
2022-09-26T23:16:18.291Z,14.25
2022-09-26T23:18:45.247Z,14.17
2022-09-26T23:21:17.327Z,14.14
2022-09-26T23:23:45.119Z,14.19
2022-09-26T23:26:23.410Z,14.19
2022-09-26T23:28:51.327Z,14.25
2022-09-26T23:31:18.824Z,14.31
2022-09-26T23:33:45.542Z,14.17
2022-09-26T23:36:12.500Z,14.18
2022-09-26T23:38:40.252Z,14.33
2022-09-26T23:41:08.593Z,14.35
2022-09-26T23:43:35.336Z,14.38
2022-09-26T23:46:05.625Z,14.31
2022-09-26T23:48:32.402Z,14.21
2022-09-26T23:50:59.213Z,14.21
2022-09-26T23:53:25.909Z,14.26
2022-09-26T23:55:53.306Z,14.23
2022-09-26T23:58:20.139Z,14.14
